ANACAPA ISLAND CA US current weather conditions

sailwx.info

Wind from 298 at 7 knots gusting 13

Air temperature 22.2° C
Dewpoint 17.6° C

Last reported at 2015-Sep-01 00:23 UTC.
Time now 2015-Sep-01 01:57 UTC

Location: N 34°01' W 119°22'.
View on Google Maps.

See reports from other nearby stations

  
Tides and Currents Weather Stations Pressure Air Temp Water Temp Dewpoint Dewpoint Depression Visibility Wind Speed Wind Dir Waves Ship Positions
date/time (UTC)wind fromknots sea level pressurealtimeterstation pressurevisibilityair tempwater tempwave heightnotes
2015-Sep-01 00:23 298 7 gusting 13 22.2
2015-Aug-31 23:23 300 6 gusting 11 23.3
2015-Aug-31 22:23 300 5 gusting 9 22.8
2015-Aug-31 21:23 347 1 gusting 6 24.4
2015-Aug-31 20:23 002 2 gusting 7 24.4
2015-Aug-31 19:23 076 2 gusting 6 25.6
2015-Aug-31 18:23 183 1 gusting 6 25.0
2015-Aug-31 17:23 053 2 gusting 6 23.3
2015-Aug-31 16:23 105 0 gusting 6 22.2
2015-Aug-31 15:23 268 1 gusting 4 21.7
2015-Aug-31 14:23 21.1
2015-Aug-31 13:23 052 1 gusting 5 20.6
2015-Aug-31 12:23 037 0 gusting 2 20.0
2015-Aug-31 11:23 20.0
2015-Aug-31 10:23 070 1 gusting 6 20.6
2015-Aug-31 09:23 029 5 gusting 10 20.6
2015-Aug-31 08:23 065 0 gusting 6 21.1
2015-Aug-31 07:23 254 3 gusting 8 21.7
2015-Aug-31 06:23 290 2 gusting 9 22.2
2015-Aug-31 05:23 296 5 gusting 14 22.2
2015-Aug-31 04:23 289 8 gusting 16 22.2
2015-Aug-31 03:23 259 7 gusting 17 22.8
2015-Aug-31 02:23 288 8 gusting 19 23.3
2015-Aug-31 01:23 279 12 gusting 20 22.8
2015-Aug-31 00:23 294 8 gusting 15 24.4
2015-Aug-30 23:23 216 3 gusting 16 26.1
2015-Aug-30 22:23 303 11 gusting 17 23.3
2015-Aug-30 21:23 330 6 gusting 10 25.0
2015-Aug-30 20:23 290 4 gusting 16 26.1
2015-Aug-30 19:23 303 9 gusting 20 23.9
2015-Aug-30 18:23 296 10 gusting 18 23.3
2015-Aug-30 17:23 300 8 gusting 15 22.2
2015-Aug-30 16:23 280 8 gusting 15 22.8
2015-Aug-30 15:23 283 11 gusting 19 21.1
2015-Aug-30 14:23 305 13 gusting 20 21.7
2015-Aug-30 13:23 306 12 gusting 21 21.7
2015-Aug-30 12:23 306 14 gusting 26 21.1
2015-Aug-30 11:23 299 14 gusting 25 21.1
2015-Aug-30 10:23 298 14 gusting 22 21.7
2015-Aug-30 09:23 303 14 gusting 24 22.2
2015-Aug-30 08:23 300 12 gusting 21 22.8
2015-Aug-30 07:23 306 16 gusting 26 23.3
2015-Aug-30 06:23 293 10 gusting 27 22.8
2015-Aug-30 05:23 296 13 gusting 27 23.3
2015-Aug-30 04:23 301 14 gusting 27 23.9
2015-Aug-30 03:23 290 18 gusting 27 24.4
2015-Aug-30 02:23 284 16 gusting 26 26.1
2015-Aug-30 01:23 270 10 gusting 20 28.3